Time;durP1;ratioP1;P1;durP2;ratioP2;P2;SDS_P1;SDS_P2;PMS_P1;PMS_P2;Temp;Humidity;BMP_temperature;BMP_pressure;BME280_temperature;BME280_humidity;BME280_pressure;Samples;Min_cycle;Max_cycle;Signal;HPM_P1;HPM_P2
2023/04/28 00:01:20;;;;;;;4.57;2.60;;;;;;;7.94;45.90;94848.72;4223427;28;20043;-60
2023/04/28 00:03:22;;;;;;;6.57;2.35;;;;;;;7.94;45.80;94855.72;4221633;28;20044;-61
2023/04/28 00:05:24;;;;;;;5.25;2.90;;;;;;;7.95;46.04;94852.13;4220791;28;20088;-59
2023/04/28 00:07:26;;;;;;;4.20;2.70;;;;;;;7.92;46.24;94848.03;4219817;28;20050;-59
2023/04/28 00:09:27;;;;;;;5.82;2.60;;;;;;;7.94;46.41;94855.72;4216621;28;20048;-57
2023/04/28 00:11:29;;;;;;;4.68;2.17;;;;;;;7.88;46.58;94849.25;4217838;28;20101;-58
2023/04/28 00:13:31;;;;;;;5.68;2.67;;;;;;;7.87;46.50;94862.44;4221055;28;20389;-59
2023/04/28 00:15:32;;;;;;;5.63;2.83;;;;;;;7.80;46.54;94860.38;4218130;28;20149;-60
2023/04/28 00:17:34;;;;;;;4.97;2.55;;;;;;;7.73;46.83;94856.69;4218054;28;20056;-60
2023/04/28 00:19:37;;;;;;;4.63;2.85;;;;;;;7.77;47.15;94852.03;4220459;27;20048;-58
2023/04/28 00:21:39;;;;;;;5.95;2.67;;;;;;;7.74;46.96;94858.34;4219198;28;20097;-59
2023/04/28 00:23:40;;;;;;;4.35;2.42;;;;;;;7.72;46.90;94851.59;4216928;28;20078;-61
2023/04/28 00:25:42;;;;;;;4.95;2.72;;;;;;;7.71;47.11;94858.59;4229294;28;20051;-60
2023/04/28 00:27:44;;;;;;;4.45;2.58;;;;;;;7.77;47.13;94858.06;4228353;28;20594;-58
2023/04/28 00:29:46;;;;;;;5.50;2.55;;;;;;;7.84;46.37;94857.50;4227782;28;20048;-58
2023/04/28 00:31:47;;;;;;;7.25;3.13;;;;;;;7.83;46.96;94851.47;4211711;28;20579;-60
2023/04/28 00:33:49;;;;;;;5.93;2.85;;;;;;;7.87;47.07;94857.22;4222644;28;20111;-60
2023/04/28 00:35:58;;;;;;;6.07;2.85;;;;;;;7.80;47.03;94857.78;4223547;28;20050;-61
2023/04/28 00:38:00;;;;;;;9.25;2.65;;;;;;;7.82;46.70;94859.44;4218182;28;20462;-59
2023/04/28 00:40:02;;;;;;;4.97;2.60;;;;;;;7.75;46.96;94869.59;4217694;28;20112;-60
2023/04/28 00:42:03;;;;;;;7.03;2.90;;;;;;;7.77;47.06;94871.09;4228420;28;20138;-58
2023/04/28 00:44:05;;;;;;;6.75;3.28;;;;;;;7.77;46.73;94868.50;4214893;28;20052;-61
2023/04/28 00:46:07;;;;;;;6.03;2.50;;;;;;;7.76;47.15;94869.44;4220472;28;20649;-59
2023/04/28 00:48:08;;;;;;;5.68;3.10;;;;;;;7.70;47.30;94867.41;4213317;28;20480;-62
2023/04/28 00:50:10;;;;;;;5.82;2.70;;;;;;;7.72;47.10;94867.25;4224442;28;20070;-59
2023/04/28 00:52:12;;;;;;;6.32;2.83;;;;;;;7.66;47.17;94873.84;4225336;28;20040;-59
2023/04/28 00:54:13;;;;;;;5.55;3.00;;;;;;;7.65;47.25;94872.19;4228396;28;20477;-59
2023/04/28 00:56:16;;;;;;;6.28;2.85;;;;;;;7.64;47.44;94875.78;4228117;28;20498;-60
2023/04/28 00:58:18;;;;;;;7.63;2.90;;;;;;;7.64;47.17;94869.75;4227992;28;20082;-60
2023/04/28 01:00:20;;;;;;;4.25;2.53;;;;;;;7.65;47.73;94868.75;4225093;28;20056;-61
2023/04/28 01:02:21;;;;;;;5.25;2.65;;;;;;;7.57;47.07;94869.44;4222979;28;20044;-61
2023/04/28 01:04:24;;;;;;;4.40;2.90;;;;;;;7.53;47.36;94874.13;4222960;28;20055;-59
2023/04/28 01:06:27;;;;;;;4.57;2.95;;;;;;;7.50;47.45;94886.59;4223324;28;20062;-60
2023/04/28 01:08:30;;;;;;;6.20;3.00;;;;;;;7.46;47.36;94878.19;4225249;28;20075;-59
2023/04/28 01:10:31;;;;;;;4.13;2.20;;;;;;;7.43;47.60;94882.88;4227218;27;20461;-59
2023/04/28 01:12:33;;;;;;;8.43;2.70;;;;;;;7.38;47.33;94873.69;4224328;28;20489;-60
2023/04/28 01:14:35;;;;;;;6.45;2.95;;;;;;;7.37;47.55;94879.03;4224368;28;20083;-60
2023/04/28 01:16:37;;;;;;;7.00;2.70;;;;;;;7.36;47.94;94882.59;4201992;28;20706;-59
2023/04/28 01:18:42;;;;;;;5.68;2.63;;;;;;;7.35;47.75;94879.16;4209354;28;20056;-60
2023/04/28 01:20:43;;;;;;;4.70;2.65;;;;;;;7.36;47.63;94885.22;4225777;28;20047;-60
2023/04/28 01:22:45;;;;;;;5.05;2.50;;;;;;;7.33;47.62;94878.47;4226396;28;20060;-60
2023/04/28 01:24:47;;;;;;;6.20;2.72;;;;;;;7.38;47.45;94883.28;4223573;28;20040;-59
2023/04/28 01:26:48;;;;;;;5.47;2.75;;;;;;;7.37;47.72;94885.06;4226688;28;20047;-61
2023/04/28 01:28:50;;;;;;;7.07;2.90;;;;;;;7.43;47.68;94882.88;4217247;28;20051;-61
2023/04/28 01:30:52;;;;;;;5.05;2.85;;;;;;;7.47;47.03;94879.06;4212235;28;20127;-58
2023/04/28 01:32:54;;;;;;;5.97;2.95;;;;;;;7.46;47.47;94883.41;4212174;28;20048;-59
2023/04/28 01:34:55;;;;;;;6.60;2.90;;;;;;;7.43;47.17;94880.28;4215333;28;20086;-61
2023/04/28 01:36:57;;;;;;;5.25;3.08;;;;;;;7.47;46.97;94885.09;4202100;28;20160;-58
2023/04/28 01:38:58;;;;;;;5.40;3.20;;;;;;;7.45;47.13;94878.38;4226796;28;20087;-61
2023/04/28 01:41:01;;;;;;;6.93;3.00;;;;;;;7.41;46.55;94884.81;4223641;28;20158;-60
2023/04/28 01:43:03;;;;;;;5.80;3.08;;;;;;;7.32;47.03;94881.22;4227300;28;20051;-62
2023/04/28 01:45:05;;;;;;;3.95;2.70;;;;;;;7.31;47.19;94876.94;4211118;28;20048;-60
2023/04/28 01:47:06;;;;;;;7.78;2.83;;;;;;;7.28;47.13;94878.06;4221654;28;20055;-60
2023/04/28 01:49:08;;;;;;;4.97;2.83;;;;;;;7.17;47.28;94881.59;4218755;28;20102;-59
2023/04/28 01:51:10;;;;;;;5.13;2.80;;;;;;;7.16;47.22;94873.91;4217401;28;20055;-61
2023/04/28 01:53:11;;;;;;;7.97;2.80;;;;;;;7.18;46.81;94877.19;4227769;28;20047;-62
2023/04/28 01:55:13;;;;;;;5.00;2.92;;;;;;;7.18;47.11;94874.59;4226217;28;20135;-61
2023/04/28 01:57:15;;;;;;;4.90;2.63;;;;;;;7.15;47.55;94880.09;4215087;28;20059;-62
2023/04/28 01:59:19;;;;;;;4.63;3.10;;;;;;;7.21;47.38;94881.34;4226446;28;20528;-61
2023/04/28 02:01:20;;;;;;;6.55;3.35;;;;;;;7.20;47.47;94885.72;4226196;28;20751;-61
2023/04/28 02:03:22;;;;;;;6.28;3.55;;;;;;;7.12;47.35;94886.41;4225759;28;20052;-61
2023/04/28 02:05:24;;;;;;;4.43;2.70;;;;;;;7.12;47.35;94875.13;4227279;28;20055;-62
2023/04/28 02:07:26;;;;;;;6.60;2.90;;;;;;;7.09;47.83;94888.44;4220369;28;20043;-62
2023/04/28 02:09:27;;;;;;;6.72;3.08;;;;;;;7.05;47.28;94880.03;4222244;28;20111;-62
2023/04/28 02:11:29;;;;;;;6.30;3.05;;;;;;;7.02;47.57;94893.34;4225146;28;20055;-61
2023/04/28 02:13:31;;;;;;;5.55;2.70;;;;;;;6.96;47.48;94894.69;4211675;28;20072;-60
2023/04/28 02:15:34;;;;;;;4.65;2.63;;;;;;;6.94;47.80;94886.19;4217593;28;20035;-60
2023/04/28 02:17:35;;;;;;;4.30;3.03;;;;;;;6.91;48.22;94889.06;4227022;28;20048;-62
2023/04/28 02:19:37;;;;;;;8.95;2.88;;;;;;;6.95;48.29;94893.06;4212685;28;20054;-62
2023/04/28 02:21:40;;;;;;;5.43;2.17;;;;;;;7.05;47.96;94894.84;4204076;28;20052;-62
2023/04/28 02:23:42;;;;;;;7.55;3.10;;;;;;;7.02;48.09;94893.34;4226371;28;20131;-61
2023/04/28 02:25:44;;;;;;;6.07;2.72;;;;;;;7.03;48.13;94899.38;4225077;28;20059;-61
2023/04/28 02:27:45;;;;;;;7.68;3.00;;;;;;;7.09;48.39;94893.63;4227280;28;20054;-61
2023/04/28 02:29:47;;;;;;;7.05;3.10;;;;;;;7.10;48.12;94895.31;4227176;28;20087;-61
2023/04/28 02:31:49;;;;;;;7.80;2.95;;;;;;;7.04;48.29;94898.44;4220845;28;20175;-61
2023/04/28 02:33:51;;;;;;;6.18;3.10;;;;;;;7.05;48.23;94902.69;4227425;28;20055;-60
2023/04/28 02:36:02;;;;;;;8.00;3.17;;;;;;;7.02;48.43;94900.34;4225291;28;20101;-62
2023/04/28 02:38:04;;;;;;;5.78;2.75;;;;;;;7.03;48.15;94904.59;4225553;28;20404;-62
2023/04/28 02:40:06;;;;;;;7.38;3.17;;;;;;;7.02;48.50;94906.38;4223975;28;20559;-60
2023/04/28 02:42:08;;;;;;;5.32;2.95;;;;;;;7.04;48.42;94901.84;4221922;28;20082;-60
2023/04/28 02:44:10;;;;;;;5.97;2.90;;;;;;;7.06;48.33;94901.72;4211306;28;21356;-60
2023/04/28 02:46:11;;;;;;;6.82;3.03;;;;;;;7.03;48.30;94909.78;4225861;28;20051;-60
2023/04/28 02:48:13;;;;;;;5.55;2.90;;;;;;;7.05;48.42;94913.09;4226668;27;20134;-60
2023/04/28 02:50:15;;;;;;;8.77;3.35;;;;;;;7.05;48.29;94913.09;4226631;28;20052;-60
2023/04/28 02:52:16;;;;;;;8.07;3.10;;;;;;;6.99;47.91;94904.03;4210547;28;20040;-59
2023/04/28 02:54:26;;;;;;;6.40;3.00;;;;;;;6.96;48.07;94905.09;4222240;28;20505;-61
2023/04/28 02:56:28;;;;;;;5.93;3.15;;;;;;;6.93;47.81;94909.78;4225578;28;20449;-61
2023/04/28 02:58:30;;;;;;;6.55;3.15;;;;;;;6.94;48.11;94919.22;4223045;28;20097;-62
2023/04/28 03:00:32;;;;;;;10.02;3.08;;;;;;;6.97;48.00;94916.38;4225173;28;20075;-61
2023/04/28 03:02:33;;;;;;;4.80;2.88;;;;;;;6.90;48.09;94921.25;4225740;28;20035;-62
2023/04/28 03:04:35;;;;;;;8.30;3.67;;;;;;;6.94;48.50;94919.22;4225500;28;20073;-61
2023/04/28 03:06:37;;;;;;;5.43;2.70;;;;;;;6.93;48.14;94920.19;4222506;28;20048;-61
2023/04/28 03:08:39;;;;;;;7.35;3.20;;;;;;;6.93;48.13;94926.22;4225171;28;20047;-62
2023/04/28 03:10:40;;;;;;;7.45;3.45;;;;;;;6.95;47.92;94923.50;4225721;28;20092;-61
2023/04/28 03:12:42;;;;;;;5.22;3.35;;;;;;;6.89;47.69;94914.41;4214397;28;20047;-61
2023/04/28 03:14:43;;;;;;;6.10;2.90;;;;;;;6.82;48.07;94922.88;4221984;28;20051;-60
2023/04/28 03:16:45;;;;;;;5.38;2.90;;;;;;;6.80;48.15;94925.63;4214439;28;20453;-59
2023/04/28 03:18:47;;;;;;;7.20;3.20;;;;;;;6.83;48.01;94927.13;4204514;28;20058;-61
2023/04/28 03:20:49;;;;;;;8.60;2.75;;;;;;;6.73;48.00;94930.53;4221369;28;20131;-61
2023/04/28 03:22:50;;;;;;;5.80;2.95;;;;;;;6.67;47.88;94931.03;4221601;28;20036;-59
2023/04/28 03:24:52;;;;;;;3.90;2.80;;;;;;;6.67;48.38;94938.03;4220039;28;20086;-59
2023/04/28 03:26:53;;;;;;;8.15;3.38;;;;;;;6.57;48.41;94941.38;4217269;28;20147;-59
2023/04/28 03:28:55;;;;;;;5.53;2.83;;;;;;;6.50;48.47;94939.44;4226253;28;20074;-59
2023/04/28 03:30:57;;;;;;;5.63;2.80;;;;;;;6.52;48.38;94943.56;4220149;28;20500;-60
2023/04/28 03:32:58;;;;;;;4.10;3.00;;;;;;;6.48;48.51;94949.16;4202316;28;20086;-60
2023/04/28 03:35:00;;;;;;;5.55;3.42;;;;;;;6.50;48.71;94955.88;4226012;28;20075;-60
2023/04/28 03:37:02;;;;;;;6.75;3.30;;;;;;;6.50;48.74;94955.06;4225686;28;20475;-59
2023/04/28 03:39:04;;;;;;;4.22;2.58;;;;;;;6.50;48.57;94955.06;4223030;28;20188;-58
2023/04/28 03:41:05;;;;;;;6.03;2.97;;;;;;;6.58;48.47;94952.63;4212206;28;20152;-60
2023/04/28 03:43:07;;;;;;;7.40;3.35;;;;;;;6.55;48.22;94958.91;4228348;28;20449;-59
2023/04/28 03:45:09;;;;;;;5.97;3.28;;;;;;;6.57;48.06;94961.41;4229626;28;20142;-60
2023/04/28 03:47:11;;;;;;;6.65;2.97;;;;;;;6.63;48.16;94967.88;4213123;28;20653;-59
2023/04/28 03:49:13;;;;;;;5.47;2.80;;;;;;;6.67;47.62;94972.69;4214607;28;20040;-59
2023/04/28 03:51:14;;;;;;;8.75;2.92;;;;;;;6.70;47.63;94969.00;4206994;28;20055;-59
2023/04/28 03:53:16;;;;;;;10.52;3.15;;;;;;;6.72;47.34;94975.72;4204972;28;20094;-59
2023/04/28 03:55:17;;;;;;;5.72;3.08;;;;;;;6.90;46.96;94975.13;4208841;28;20705;-60
2023/04/28 03:57:19;;;;;;;4.45;3.03;;;;;;;7.00;47.09;94976.00;4203134;28;20051;-60
2023/04/28 03:59:21;;;;;;;5.40;2.63;;;;;;;6.96;46.76;94977.22;4207306;28;20168;-62
2023/04/28 04:01:22;;;;;;;7.35;3.03;;;;;;;7.00;46.90;94985.63;4209509;28;20051;-61
2023/04/28 04:03:26;;;;;;;5.80;3.00;;;;;;;7.01;46.66;94984.63;4207623;28;20048;-63
2023/04/28 04:05:28;;;;;;;5.82;3.00;;;;;;;6.98;46.89;94986.53;4214555;28;20113;-61
2023/04/28 04:07:30;;;;;;;5.20;2.58;;;;;;;6.95;46.67;94991.22;4213100;28;20044;-60
2023/04/28 04:09:32;;;;;;;7.10;2.65;;;;;;;7.02;46.94;94983.69;4213371;28;20048;-59
2023/04/28 04:11:33;;;;;;;7.15;3.00;;;;;;;7.14;46.59;95000.88;4210857;28;20052;-61
2023/04/28 04:13:35;;;;;;;8.20;3.30;;;;;;;7.17;46.26;94995.41;4213716;28;20109;-60
2023/04/28 04:15:36;;;;;;;5.43;2.80;;;;;;;7.15;46.36;95003.34;4204676;28;20088;-62
2023/04/28 04:17:38;;;;;;;6.90;2.72;;;;;;;7.05;46.81;94996.44;4208183;28;20048;-61
2023/04/28 04:19:40;;;;;;;7.05;2.83;;;;;;;7.21;46.03;94991.59;4208120;28;20071;-62
2023/04/28 04:21:42;;;;;;;6.72;2.58;;;;;;;7.46;46.05;94998.09;4213035;28;20533;-63
2023/04/28 04:23:43;;;;;;;4.32;2.63;;;;;;;7.49;45.42;95002.25;4214151;28;20036;-60
2023/04/28 04:25:45;;;;;;;6.10;3.03;;;;;;;7.47;45.78;95007.59;4201245;28;20410;-62
2023/04/28 04:27:46;;;;;;;4.15;2.70;;;;;;;7.56;45.27;95000.75;4213529;28;20052;-63
2023/04/28 04:29:48;;;;;;;7.57;3.42;;;;;;;7.67;45.58;95003.25;4214977;28;20563;-62
2023/04/28 04:31:50;;;;;;;5.65;3.17;;;;;;;7.66;45.07;95012.03;4206359;28;20651;-63
2023/04/28 04:33:52;;;;;;;4.63;2.72;;;;;;;7.67;45.07;95010.25;4215285;28;20089;-62
2023/04/28 04:35:53;;;;;;;8.20;2.95;;;;;;;7.76;44.96;95002.44;4213522;28;20140;-62
2023/04/28 04:37:55;;;;;;;8.40;3.22;;;;;;;7.84;44.74;95014.81;4212604;28;20109;-62
2023/04/28 04:39:57;;;;;;;7.93;3.78;;;;;;;7.88;44.95;95011.00;4211413;28;20109;-61
2023/04/28 04:41:58;;;;;;;6.60;3.03;;;;;;;7.93;44.89;95010.56;4213169;28;20052;-63
2023/04/28 04:44:10;;;;;;;7.30;3.13;;;;;;;8.04;44.40;95010.44;4212970;28;20059;-62
2023/04/28 04:46:14;;;;;;;;;;;;;;;7.82;44.75;95006.31;4218371;28;20056;-61
2023/04/28 04:48:16;;;;;;;6.05;2.83;;;;;;;7.66;45.12;95022.47;4225143;28;19934;-64
2023/04/28 04:50:18;;;;;;;5.85;3.08;;;;;;;7.74;45.27;95025.25;4218841;27;20083;-62
2023/04/28 04:52:20;;;;;;;6.90;3.17;;;;;;;7.82;45.28;95026.34;4217508;28;20051;-63
2023/04/28 04:54:22;;;;;;;5.03;3.13;;;;;;;7.67;45.35;95023.28;4230309;28;20055;-64
2023/04/28 04:56:23;;;;;;;5.60;3.25;;;;;;;7.60;45.38;95030.81;4228425;28;20047;-67
2023/04/28 04:58:25;;;;;;;6.15;3.50;;;;;;;7.73;45.52;95033.19;4216432;28;20052;-63
2023/04/28 05:00:27;;;;;;;7.00;3.00;;;;;;;7.73;45.26;95030.59;4229220;28;20054;-66
2023/04/28 05:02:29;;;;;;;7.70;3.15;;;;;;;7.68;45.14;95033.59;4222267;27;20108;-62
2023/04/28 05:04:30;;;;;;;5.50;3.28;;;;;;;7.61;45.62;95040.28;4228728;28;20047;-63
2023/04/28 05:06:33;;;;;;;7.15;3.80;;;;;;;7.59;45.53;95031.78;4214845;28;20075;-60
2023/04/28 05:08:35;;;;;;;7.45;3.22;;;;;;;7.71;45.75;95037.72;4202544;28;20044;-61
2023/04/28 05:10:36;;;;;;;6.30;3.45;;;;;;;7.67;45.81;95037.16;4213586;28;20046;-63
2023/04/28 05:12:38;;;;;;;4.75;2.95;;;;;;;7.47;45.68;95044.09;4213683;28;20044;-62
2023/04/28 05:14:39;;;;;;;8.68;3.15;;;;;;;7.59;45.92;95039.59;4214766;28;20055;-61
2023/04/28 05:16:41;;;;;;;9.63;3.38;;;;;;;7.49;46.20;95033.53;4212682;28;20044;-62
2023/04/28 05:18:43;;;;;;;6.07;3.20;;;;;;;7.61;45.75;95055.94;4214118;28;20067;-63
2023/04/28 05:20:45;;;;;;;7.95;3.38;;;;;;;7.46;46.28;95046.81;4213220;28;20051;-63
2023/04/28 05:22:46;;;;;;;6.13;3.58;;;;;;;7.43;46.50;95039.28;4213354;28;20051;-62
2023/04/28 05:24:48;;;;;;;7.55;3.45;;;;;;;7.51;46.37;95042.88;4214929;28;20048;-63
2023/04/28 05:26:50;;;;;;;9.93;3.28;;;;;;;7.36;47.11;95052.00;4223154;28;20044;-65
2023/04/28 05:28:53;;;;;;;5.22;3.20;;;;;;;7.43;46.83;95044.50;4221267;28;20448;-64
2023/04/28 05:30:54;;;;;;;7.03;2.72;;;;;;;7.40;47.30;95045.59;4214878;28;20498;-62
2023/04/28 05:32:56;;;;;;;7.10;3.25;;;;;;;7.26;47.18;95054.56;4221547;28;20039;-62
2023/04/28 05:34:58;;;;;;;5.32;3.17;;;;;;;7.28;47.79;95044.00;4222463;27;20062;-62
2023/04/28 05:37:00;;;;;;;8.00;3.70;;;;;;;7.27;48.02;95042.34;4217854;28;20083;-66
2023/04/28 05:39:01;;;;;;;8.82;3.88;;;;;;;7.16;47.93;95040.66;4223840;28;20051;-63
2023/04/28 05:41:03;;;;;;;7.70;3.58;;;;;;;7.47;47.83;95038.06;4224982;28;20084;-63
2023/04/28 05:43:04;;;;;;;8.15;3.63;;;;;;;7.63;47.32;95038.38;4226609;28;20118;-62
2023/04/28 05:45:07;;;;;;;6.18;3.70;;;;;;;7.84;46.65;95040.91;4227008;28;20678;-66
2023/04/28 05:47:08;;;;;;;8.05;3.72;;;;;;;7.98;46.45;95037.91;4222743;28;20066;-63
2023/04/28 05:49:10;;;;;;;4.82;3.00;;;;;;;8.06;45.97;95044.25;4226369;28;20060;-63
2023/04/28 05:51:12;;;;;;;4.65;3.28;;;;;;;8.04;45.57;95039.16;4226065;28;20048;-64
2023/04/28 05:53:13;;;;;;;8.25;3.47;;;;;;;7.12;47.14;95044.47;4227483;28;20465;-63
2023/04/28 05:55:15;;;;;;;10.07;3.53;;;;;;;6.96;48.18;95045.75;4221876;28;20079;-63
2023/04/28 05:57:17;;;;;;;8.05;3.55;;;;;;;7.26;47.80;95045.91;4224581;28;20093;-62
2023/04/28 05:59:18;;;;;;;7.70;3.83;;;;;;;7.41;46.93;95049.00;4219574;28;20048;-63
2023/04/28 06:01:21;;;;;;;4.85;3.33;;;;;;;7.59;46.21;95042.19;4215651;28;20059;-63
2023/04/28 06:03:23;;;;;;;5.63;3.33;;;;;;;7.75;45.72;95052.97;4210545;28;20070;-64
2023/04/28 06:05:25;;;;;;;8.10;4.68;;;;;;;7.93;45.02;95045.31;4220376;28;20130;-64
2023/04/28 06:07:27;;;;;;;5.95;3.40;;;;;;;8.14;45.27;95039.19;4217685;28;20520;-61
2023/04/28 06:09:29;;;;;;;6.50;3.40;;;;;;;7.59;45.95;95052.63;4223895;28;20545;-60
2023/04/28 06:11:31;;;;;;;8.20;3.95;;;;;;;7.48;46.75;95052.72;4218547;28;20052;-62
2023/04/28 06:13:32;;;;;;;6.28;3.47;;;;;;;7.71;46.11;95051.56;4225831;28;20071;-64
2023/04/28 06:15:34;;;;;;;5.88;3.70;;;;;;;7.81;45.86;95051.63;4220308;28;20079;-63
2023/04/28 06:17:37;;;;;;;6.53;3.50;;;;;;;7.83;45.97;95043.63;4221480;28;20174;-63
2023/04/28 06:19:39;;;;;;;4.97;3.20;;;;;;;8.13;45.49;95045.34;4220392;28;20040;-62
2023/04/28 06:21:41;;;;;;;6.65;3.70;;;;;;;8.32;45.60;95044.53;4211802;28;20647;-63
2023/04/28 06:23:42;;;;;;;7.72;3.22;;;;;;;8.60;44.49;95054.22;4213258;28;20444;-63
2023/04/28 06:25:44;;;;;;;7.88;4.13;;;;;;;8.27;44.58;95055.38;4223862;28;20078;-65
2023/04/28 06:27:46;;;;;;;5.43;3.75;;;;;;;7.76;45.67;95054.59;4218805;28;20052;-62
2023/04/28 06:29:47;;;;;;;6.32;3.40;;;;;;;7.47;46.10;95051.09;4221723;28;20097;-63
2023/04/28 06:31:50;;;;;;;6.72;3.20;;;;;;;7.63;46.17;95051.41;4220700;28;20080;-63
2023/04/28 06:33:51;;;;;;;6.10;4.40;;;;;;;7.95;45.61;95051.22;4218542;28;20548;-63
2023/04/28 06:35:53;;;;;;;7.25;3.10;;;;;;;8.18;44.67;95051.81;4218545;28;20063;-63
2023/04/28 06:37:55;;;;;;;7.22;3.75;;;;;;;8.16;44.38;95050.31;4217870;28;21207;-61
2023/04/28 06:39:56;;;;;;;6.93;3.38;;;;;;;8.36;44.48;95045.91;4217934;28;20047;-63
2023/04/28 06:41:58;;;;;;;7.47;3.25;;;;;;;8.54;44.40;95046.94;4218730;28;20482;-65
2023/04/28 06:43:59;;;;;;;5.32;2.80;;;;;;;8.71;43.56;95044.56;4216509;28;20054;-62
2023/04/28 06:46:01;;;;;;;6.75;2.95;;;;;;;8.69;42.93;95041.25;4214149;28;20055;-62
2023/04/28 06:48:04;;;;;;;6.13;3.25;;;;;;;8.83;43.70;95035.63;4214821;28;20105;-62
2023/04/28 06:50:06;;;;;;;4.93;3.08;;;;;;;8.83;43.04;95035.63;4216483;28;20052;-61
2023/04/28 06:52:08;;;;;;;6.85;3.38;;;;;;;8.93;43.16;95040.84;4209331;28;20130;-63
2023/04/28 06:54:10;;;;;;;8.07;3.45;;;;;;;8.77;43.03;95044.81;4221152;28;20126;-62
2023/04/28 06:56:13;;;;;;;5.90;3.35;;;;;;;8.04;43.85;95039.16;4218221;28;20105;-62
2023/04/28 06:58:15;;;;;;;11.05;3.05;;;;;;;7.80;45.54;95039.53;4216804;28;20055;-64
2023/04/28 07:00:16;;;;;;;7.82;3.30;;;;;;;8.04;45.38;95033.13;4218878;28;20137;-63
2023/04/28 07:02:18;;;;;;;9.00;3.67;;;;;;;8.04;45.46;95040.94;4210639;28;20048;-62
2023/04/28 07:04:20;;;;;;;7.75;3.20;;;;;;;7.69;46.38;95039.63;4216085;28;20048;-63
2023/04/28 07:06:22;;;;;;;6.40;3.38;;;;;;;7.98;46.14;95031.88;4215446;28;20668;-63
2023/04/28 07:08:24;;;;;;;7.78;3.63;;;;;;;8.33;45.49;95038.38;4219698;28;20450;-63
2023/04/28 07:10:26;;;;;;;16.63;3.55;;;;;;;8.55;44.79;95040.72;4218779;28;20656;-62
2023/04/28 07:12:28;;;;;;;5.50;3.25;;;;;;;8.68;43.67;95029.19;4216407;28;20040;-64
2023/04/28 07:14:29;;;;;;;7.95;3.35;;;;;;;9.00;43.06;95032.28;4217365;28;20093;-63
2023/04/28 07:16:31;;;;;;;11.50;3.88;;;;;;;9.02;42.61;95034.75;4218664;28;20044;-63
2023/04/28 07:18:33;;;;;;;7.40;3.13;;;;;;;8.85;43.00;95031.06;4221023;28;20050;-62
2023/04/28 07:20:34;;;;;;;7.03;3.17;;;;;;;8.80;42.33;95038.53;4218331;28;20044;-63
2023/04/28 07:22:37;;;;;;;9.20;4.47;;;;;;;8.66;43.69;95036.31;4202384;28;20422;-60
2023/04/28 07:24:39;;;;;;;14.98;6.97;;;;;;;8.69;43.98;95030.81;4224242;28;20061;-61
2023/04/28 07:26:40;;;;;;;7.13;3.38;;;;;;;9.11;42.70;95036.50;4219713;28;20493;-60
2023/04/28 07:28:43;;;;;;;9.07;3.67;;;;;;;9.36;42.92;95027.22;4219695;28;20112;-62
2023/04/28 07:30:44;;;;;;;7.05;3.03;;;;;;;9.72;41.75;95027.34;4223650;28;20091;-62
2023/04/28 07:32:47;;;;;;;8.57;3.58;;;;;;;9.93;41.98;95018.41;4223071;28;20705;-61
2023/04/28 07:34:49;;;;;;;8.43;3.07;;;;;;;10.09;40.74;95015.13;4228635;28;20043;-62
2023/04/28 07:36:51;;;;;;;9.27;3.55;;;;;;;9.49;41.15;95021.66;4224649;28;20039;-63
2023/04/28 07:38:52;;;;;;;10.55;3.85;;;;;;;9.26;42.42;95030.84;4225090;28;20449;-63
2023/04/28 07:40:54;;;;;;;13.13;5.28;;;;;;;9.16;42.76;95025.63;4219621;28;20066;-61
2023/04/28 07:42:56;;;;;;;12.43;5.20;;;;;;;9.14;42.96;95024.94;4215597;28;20059;-62
2023/04/28 07:44:57;;;;;;;8.63;3.67;;;;;;;9.56;42.13;95021.91;4227328;28;20481;-62
2023/04/28 07:46:59;;;;;;;4.28;2.38;;;;;;;9.96;40.26;95020.72;4225249;28;20067;-62
2023/04/28 07:49:01;;;;;;;5.78;2.55;;;;;;;10.32;39.94;95015.56;4222897;28;20349;-63
2023/04/28 07:51:03;;;;;;;5.47;2.30;;;;;;;10.35;38.89;95023.94;4218438;28;20078;-60
2023/04/28 07:53:05;;;;;;;4.28;2.33;;;;;;;10.56;38.60;95012.31;4217793;28;20052;-60
2023/04/28 07:55:07;;;;;;;7.82;2.95;;;;;;;10.67;38.28;95012.09;4211155;28;20083;-61
2023/04/28 07:57:09;;;;;;;10.13;2.95;;;;;;;10.92;38.66;95009.66;4223626;28;20165;-61
2023/04/28 07:59:11;;;;;;;4.78;3.22;;;;;;;10.28;39.08;95014.16;4226737;28;20059;-63
2023/04/28 08:01:12;;;;;;;6.95;2.40;;;;;;;9.71;39.29;95017.84;4225967;28;20417;-65
2023/04/28 08:03:14;;;;;;;6.50;2.70;;;;;;;10.06;39.44;95013.63;4223261;28;20064;-63
2023/04/28 08:05:16;;;;;;;10.90;4.65;;;;;;;9.62;40.21;95021.34;4223689;28;20219;-63
2023/04/28 08:07:19;;;;;;;6.43;3.58;;;;;;;9.95;39.92;95017.28;4225379;28;20043;-62
2023/04/28 08:09:20;;;;;;;5.90;3.33;;;;;;;9.97;39.69;95017.16;4225642;28;20485;-59
2023/04/28 08:11:22;;;;;;;9.65;2.95;;;;;;;10.13;39.64;95017.31;4223876;28;20558;-60
2023/04/28 08:13:24;;;;;;;6.35;2.70;;;;;;;10.50;39.44;95013.78;4222492;28;20044;-64
2023/04/28 08:15:26;;;;;;;3.97;2.67;;;;;;;10.73;38.67;95014.09;4216700;28;20136;-62
2023/04/28 08:17:28;;;;;;;8.25;3.22;;;;;;;10.69;38.50;95032.91;4225943;28;20051;-63
2023/04/28 08:19:30;;;;;;;5.22;2.85;;;;;;;10.85;38.71;95010.25;4223751;28;20058;-61
2023/04/28 08:21:31;;;;;;;6.53;3.42;;;;;;;11.00;38.10;95014.97;4223948;28;20088;-61
2023/04/28 08:23:33;;;;;;;4.88;2.80;;;;;;;10.94;37.17;95013.75;4225875;28;20048;-61
2023/04/28 08:25:35;;;;;;;4.90;2.35;;;;;;;10.45;37.78;95021.22;4225774;28;20048;-62
2023/04/28 08:27:38;;;;;;;5.93;3.05;;;;;;;10.68;38.24;95012.94;4226931;28;20043;-62
2023/04/28 08:29:41;;;;;;;4.13;2.40;;;;;;;11.05;37.51;95012.69;4213451;28;20048;-62
2023/04/28 08:31:42;;;;;;;10.23;4.07;;;;;;;11.25;36.68;95011.50;4214681;28;20055;-61
2023/04/28 08:33:47;;;;;;;22.85;10.60;;;;;;;11.39;36.82;94999.59;4224194;28;20047;-63
2023/04/28 08:35:49;;;;;;;4.18;2.60;;;;;;;11.62;36.67;94999.88;4228255;28;20354;-64
2023/04/28 08:37:52;;;;;;;6.03;2.60;;;;;;;11.86;36.34;95003.56;4227603;28;20135;-63
2023/04/28 08:40:00;;;;;;;5.70;2.55;;;;;;;11.93;35.39;94999.34;4227353;27;20401;-63
2023/04/28 08:42:06;;;;;;;9.55;3.10;;;;;;;11.87;35.85;95000.81;4227706;28;20043;-64
2023/04/28 08:44:11;;;;;;;10.10;2.67;;;;;;;12.13;35.98;95005.16;4224278;28;20044;-62
2023/04/28 08:46:13;;;;;;;5.05;2.55;;;;;;;12.00;35.24;95013.50;4228286;28;20477;-63
2023/04/28 08:48:20;;;;;;;4.22;2.17;;;;;;;12.06;35.25;95009.41;4220161;27;20044;-65
2023/04/28 08:50:22;;;;;;;4.80;2.08;;;;;;;12.34;34.89;94996.00;4222391;28;20059;-64
2023/04/28 08:52:25;;;;;;;6.32;2.33;;;;;;;12.68;35.50;94993.22;4221043;28;20055;-62
2023/04/28 08:54:30;;;;;;;11.35;2.60;;;;;;;12.37;34.71;94996.50;4226545;28;20115;-64
2023/04/28 08:56:33;;;;;;;9.80;2.70;;;;;;;11.57;36.47;94998.69;4225969;28;20073;-63
2023/04/28 08:58:36;;;;;;;5.25;2.80;;;;;;;11.92;36.20;94981.97;4225951;28;20048;-63
2023/04/28 09:00:38;;;;;;;4.65;2.50;;;;;;;12.22;35.45;94983.19;4226896;27;20100;-63
2023/04/28 09:02:42;;;;;;;5.38;2.42;;;;;;;12.19;35.13;94990.53;4226433;28;20050;-62
2023/04/28 09:04:46;;;;;;;5.13;1.95;;;;;;;12.30;34.78;95000.72;4224675;28;20126;-64
2023/04/28 09:06:48;;;;;;;9.52;4.38;;;;;;;11.81;35.49;94996.19;4220827;28;20688;-63
2023/04/28 09:08:49;;;;;;;8.05;2.83;;;;;;;11.38;35.86;94992.72;4226707;28;20364;-63
2023/04/28 09:11:18;;;;;;;9.35;2.70;;;;;;;11.26;36.28;94986.09;4226759;28;20142;-63
2023/04/28 09:13:24;;;;;;;7.93;2.20;;;;;;;11.41;36.08;94981.09;4205379;28;20051;-63
2023/04/28 09:15:26;;;;;;;6.15;3.40;;;;;;;11.52;36.05;94974.75;4219175;28;20074;-63
2023/04/28 09:17:28;;;;;;;2.65;2.10;;;;;;;11.75;35.89;94988.94;4211622;28;20044;-64
2023/04/28 09:19:37;;;;;;;4.88;2.10;;;;;;;11.73;35.89;94975.16;4223974;28;20132;-62
2023/04/28 09:22:05;;;;;;;6.28;2.33;;;;;;;11.67;36.29;94973.16;4226026;28;20047;-63
2023/04/28 09:24:30;;;;;;;4.57;2.40;;;;;;;11.87;35.82;94961.41;4214234;28;20434;-63
2023/04/28 09:26:49;;;;;;;5.78;2.38;;;;;;;11.89;35.33;94966.53;4216956;28;20122;-63
2023/04/28 09:28:56;;;;;;;6.65;2.20;;;;;;;11.80;35.90;94957.78;4226443;28;20550;-65
2023/04/28 09:30:57;;;;;;;6.70;2.42;;;;;;;11.92;35.84;94968.03;4215496;28;20057;-63
2023/04/28 09:33:06;;;;;;;7.22;2.45;;;;;;;11.51;35.65;94973.09;4209793;28;20104;-65
2023/04/28 09:35:11;;;;;;;6.32;2.40;;;;;;;10.91;36.63;94966.91;4222648;28;20092;-62
2023/04/28 09:37:18;;;;;;;7.25;2.63;;;;;;;10.96;36.92;94966.44;4219295;28;20056;-63
2023/04/28 09:39:30;;;;;;;6.57;2.90;;;;;;;11.03;36.75;94957.81;4222965;28;20093;-64
2023/04/28 09:41:42;;;;;;;6.00;2.38;;;;;;;11.15;37.14;94957.53;4226379;28;20079;-63